createdAt,value
2023-02-09T00:01:35.021Z,2.18
2023-02-09T00:04:02.697Z,2.18
2023-02-09T00:06:30.312Z,2.17
2023-02-09T00:08:58.565Z,2.15
2023-02-09T00:11:49.214Z,2.16
2023-02-09T00:14:20.282Z,2.16
2023-02-09T00:16:48.794Z,2.16
2023-02-09T00:19:15.755Z,2.16
2023-02-09T00:21:42.377Z,2.16
2023-02-09T00:24:11.380Z,2.16
2023-02-09T00:26:38.255Z,2.17
2023-02-09T00:29:05.418Z,2.16
2023-02-09T00:31:32.072Z,2.16
2023-02-09T00:33:59.000Z,2.16
2023-02-09T00:36:25.570Z,2.17
2023-02-09T00:38:52.214Z,2.18
2023-02-09T00:41:39.156Z,2.20
2023-02-09T00:44:05.838Z,2.21
2023-02-09T00:46:32.422Z,2.23
2023-02-09T00:48:58.989Z,2.22
2023-02-09T00:51:25.529Z,2.23
2023-02-09T00:53:52.072Z,2.23
2023-02-09T00:56:18.648Z,2.24
2023-02-09T00:58:45.241Z,2.26
2023-02-09T01:01:15.775Z,2.26
2023-02-09T01:03:43.065Z,2.21
2023-02-09T01:06:10.373Z,2.24
2023-02-09T01:08:38.626Z,2.22
2023-02-09T01:11:10.112Z,2.24
2023-02-09T01:13:37.110Z,2.25
2023-02-09T01:16:08.434Z,2.28
2023-02-09T01:18:35.019Z,2.28
2023-02-09T01:21:01.659Z,2.27
2023-02-09T01:23:28.283Z,2.30
2023-02-09T01:26:12.147Z,2.31
2023-02-09T01:28:39.155Z,2.34
2023-02-09T01:31:07.416Z,2.34
2023-02-09T01:33:34.067Z,2.36
2023-02-09T01:36:04.795Z,2.36
2023-02-09T01:38:31.338Z,2.37
2023-02-09T01:40:57.952Z,2.37
2023-02-09T01:43:24.526Z,2.37
2023-02-09T01:45:54.859Z,2.37
2023-02-09T01:48:30.443Z,2.38
2023-02-09T01:51:01.011Z,2.38
2023-02-09T01:53:27.774Z,2.34
2023-02-09T01:56:02.325Z,2.37
2023-02-09T01:58:29.251Z,2.38
2023-02-09T02:00:55.858Z,2.40
2023-02-09T02:03:25.706Z,2.40
2023-02-09T02:05:56.913Z,2.38
2023-02-09T02:11:01.271Z,2.41
2023-02-09T02:13:27.871Z,2.41
2023-02-09T02:16:34.216Z,2.40
2023-02-09T02:19:38.086Z,2.42
2023-02-09T02:22:44.434Z,2.43
2023-02-09T02:31:22.353Z,2.52
2023-02-09T02:36:38.839Z,2.96
2023-02-09T02:39:25.273Z,2.68
2023-02-09T02:44:31.273Z,2.69
2023-02-09T02:47:03.384Z,2.70
2023-02-09T02:49:39.658Z,2.71
2023-02-09T02:52:09.483Z,2.72
2023-02-09T02:54:40.369Z,2.71
2023-02-09T02:57:13.769Z,2.72
2023-02-09T03:00:02.206Z,2.71
2023-02-09T03:02:34.190Z,2.73
2023-02-09T03:05:03.528Z,2.74
2023-02-09T03:07:30.123Z,2.74
2023-02-09T03:09:57.443Z,2.74
2023-02-09T03:15:28.909Z,2.75
2023-02-09T03:23:30.955Z,2.79
2023-02-09T03:26:01.530Z,2.81
2023-02-09T03:28:33.690Z,2.79
2023-02-09T03:31:02.463Z,2.79
2023-02-09T03:33:33.053Z,2.80
2023-02-09T03:36:00.842Z,2.75
2023-02-09T03:38:28.028Z,2.79
2023-02-09T03:40:54.900Z,2.82
2023-02-09T03:43:41.395Z,2.85
2023-02-09T03:46:07.983Z,2.87
2023-02-09T03:48:35.253Z,2.89
2023-02-09T03:51:01.855Z,2.92
2023-02-09T03:53:28.384Z,2.92
2023-02-09T03:55:54.934Z,2.94
2023-02-09T03:58:21.843Z,2.97
2023-02-09T04:00:48.400Z,2.97
2023-02-09T04:03:14.974Z,2.99
2023-02-09T04:05:41.503Z,2.98
2023-02-09T04:08:08.046Z,3.03
2023-02-09T04:10:34.577Z,3.06
2023-02-09T04:13:01.596Z,3.10
2023-02-09T04:15:28.127Z,3.12
2023-02-09T04:17:54.680Z,3.17
2023-02-09T04:20:21.200Z,3.20
2023-02-09T04:22:47.748Z,3.25
2023-02-09T04:25:14.314Z,3.26
2023-02-09T04:27:40.839Z,3.29
2023-02-09T04:30:08.211Z,3.30
2023-02-09T04:32:34.734Z,3.33
2023-02-09T04:35:01.272Z,3.36
2023-02-09T04:37:27.883Z,3.40
2023-02-09T04:39:54.468Z,3.44
2023-02-09T04:42:21.023Z,3.47
2023-02-09T04:44:47.541Z,3.51
2023-02-09T04:47:14.093Z,3.53
2023-02-09T04:49:42.625Z,3.55
2023-02-09T04:52:09.167Z,3.56
2023-02-09T04:54:35.784Z,3.58
2023-02-09T04:57:22.341Z,3.58
2023-02-09T04:59:48.945Z,3.59
2023-02-09T05:02:15.584Z,3.60
2023-02-09T05:04:42.259Z,3.62
2023-02-09T05:07:08.869Z,3.63
2023-02-09T05:09:35.524Z,3.64
2023-02-09T05:12:02.095Z,3.64
2023-02-09T05:14:28.774Z,3.65
2023-02-09T05:16:55.425Z,3.66
2023-02-09T05:19:22.116Z,3.69
2023-02-09T05:21:48.655Z,3.71
2023-02-09T05:24:15.181Z,3.72
2023-02-09T05:26:41.754Z,3.75
2023-02-09T05:29:08.345Z,3.77
2023-02-09T05:31:35.090Z,3.79
2023-02-09T05:34:01.877Z,3.82
2023-02-09T05:36:28.833Z,3.83
2023-02-09T05:38:55.365Z,3.88
2023-02-09T05:41:41.824Z,3.88
2023-02-09T05:44:08.735Z,3.90
2023-02-09T05:46:35.293Z,3.92
2023-02-09T05:49:02.048Z,3.94
2023-02-09T05:51:28.599Z,3.96
2023-02-09T05:53:56.346Z,3.98
2023-02-09T05:56:23.007Z,4.00
2023-02-09T05:58:49.568Z,4.02
2023-02-09T06:01:16.292Z,4.03
2023-02-09T06:03:42.902Z,4.05
2023-02-09T06:06:09.466Z,4.06
2023-02-09T06:08:36.063Z,4.07
2023-02-09T06:11:04.087Z,4.09
2023-02-09T06:13:30.609Z,4.11
2023-02-09T06:15:57.285Z,4.14
2023-02-09T06:18:23.907Z,4.16
2023-02-09T06:20:50.456Z,4.16
2023-02-09T06:23:16.996Z,4.18
2023-02-09T06:25:43.548Z,4.20
2023-02-09T06:28:10.135Z,4.20
2023-02-09T06:30:36.874Z,4.21
2023-02-09T06:33:03.560Z,4.21
2023-02-09T06:35:30.108Z,4.23
2023-02-09T06:37:58.129Z,4.23
2023-02-09T06:40:24.825Z,4.25
2023-02-09T06:42:51.376Z,4.26
2023-02-09T06:45:18.002Z,4.26
2023-02-09T06:47:45.867Z,4.28
2023-02-09T06:50:14.157Z,4.29
2023-02-09T06:52:40.980Z,4.28
2023-02-09T06:55:08.274Z,4.29
2023-02-09T06:57:35.512Z,4.30
2023-02-09T07:00:03.273Z,4.29
2023-02-09T07:02:29.849Z,4.31
2023-02-09T07:04:57.696Z,4.32
2023-02-09T07:07:25.577Z,4.32
2023-02-09T07:09:52.196Z,4.34
2023-02-09T07:12:18.725Z,4.35
2023-02-09T07:14:45.865Z,4.37
2023-02-09T07:17:12.465Z,4.40
2023-02-09T07:19:38.978Z,4.39
2023-02-09T07:22:05.536Z,4.36
2023-02-09T07:24:32.081Z,4.34
2023-02-09T07:26:58.620Z,4.30
2023-02-09T07:29:25.202Z,4.26
2023-02-09T07:31:51.889Z,4.22
2023-02-09T07:34:18.514Z,4.18
2023-02-09T07:36:47.940Z,4.13
2023-02-09T07:39:14.802Z,4.04
2023-02-09T07:41:41.423Z,3.96
2023-02-09T07:44:09.488Z,3.89
2023-02-09T07:46:36.255Z,3.81
2023-02-09T07:49:03.053Z,3.78
2023-02-09T07:51:29.791Z,3.73
2023-02-09T07:53:58.390Z,3.72
2023-02-09T07:56:26.441Z,3.70
2023-02-09T07:58:54.101Z,3.69
2023-02-09T08:01:21.519Z,3.63
2023-02-09T08:03:49.847Z,3.64
2023-02-09T08:08:55.967Z,3.63
2023-02-09T08:11:29.295Z,3.63
2023-02-09T08:13:58.077Z,3.63
2023-02-09T08:16:28.483Z,3.65
2023-02-09T08:18:57.599Z,3.62
2023-02-09T08:21:25.268Z,3.70
2023-02-09T08:23:55.726Z,3.91
2023-02-09T08:26:22.237Z,4.46
2023-02-09T08:28:49.350Z,5.42
2023-02-09T08:31:19.009Z,6.51
2023-02-09T08:33:48.603Z,7.62
2023-02-09T08:36:16.803Z,8.65
2023-02-09T08:38:44.665Z,9.64
2023-02-09T08:41:13.391Z,10.61
2023-02-09T08:43:40.496Z,11.50
2023-02-09T08:46:09.594Z,12.32
2023-02-09T08:48:38.274Z,13.09
2023-02-09T08:51:06.796Z,13.64
2023-02-09T08:53:33.510Z,13.93
2023-02-09T08:56:00.286Z,14.05
2023-02-09T08:58:27.760Z,14.31
2023-02-09T09:00:57.272Z,14.73
2023-02-09T09:03:27.898Z,15.21
2023-02-09T09:06:00.245Z,15.62
2023-02-09T09:08:27.680Z,16.08
2023-02-09T09:10:54.334Z,16.62
2023-02-09T09:13:21.370Z,17.17
2023-02-09T09:15:48.339Z,17.72
2023-02-09T09:18:15.168Z,18.30
2023-02-09T09:20:42.528Z,18.70
2023-02-09T09:23:10.539Z,19.20
2023-02-09T09:25:39.679Z,19.46
2023-02-09T09:28:07.497Z,19.73
2023-02-09T09:30:34.195Z,19.99
2023-02-09T09:33:01.652Z,20.13
2023-02-09T09:35:28.642Z,20.35
2023-02-09T09:37:57.440Z,20.59
2023-02-09T09:40:28.630Z,20.66
2023-02-09T09:42:59.413Z,20.55
2023-02-09T09:45:29.714Z,20.39
2023-02-09T09:47:57.002Z,20.37
2023-02-09T09:50:28.147Z,20.23
2023-02-09T09:53:01.022Z,20.06
2023-02-09T09:55:31.539Z,19.88
2023-02-09T09:58:03.239Z,19.78
2023-02-09T10:00:45.591Z,19.77
2023-02-09T10:03:15.897Z,19.59
2023-02-09T10:05:44.265Z,19.35
2023-02-09T10:08:37.267Z,19.29
2023-02-09T10:11:09.978Z,19.42
2023-02-09T10:13:44.350Z,19.68
2023-02-09T10:16:34.430Z,19.65
2023-02-09T10:19:04.145Z,19.30
2023-02-09T10:21:34.220Z,18.75
2023-02-09T10:26:39.221Z,19.32
2023-02-09T10:31:59.972Z,19.92
2023-02-09T10:34:33.395Z,20.13
2023-02-09T10:37:22.792Z,20.27
2023-02-09T10:39:58.758Z,20.35
2023-02-09T10:42:32.811Z,20.43
2023-02-09T10:45:12.232Z,20.59
2023-02-09T10:47:38.873Z,20.46
2023-02-09T10:50:18.020Z,20.39
2023-02-09T10:52:56.308Z,20.00
2023-02-09T10:55:37.088Z,19.54
2023-02-09T10:58:22.103Z,18.93
2023-02-09T11:00:53.956Z,18.01
2023-02-09T11:03:25.867Z,17.08
2023-02-09T11:06:16.253Z,16.31
2023-02-09T11:08:50.958Z,15.58
2023-02-09T11:13:53.915Z,14.58
2023-02-09T11:25:48.366Z,12.89
2023-02-09T11:28:53.730Z,12.63
2023-02-09T11:37:20.239Z,12.01
2023-02-09T11:39:57.521Z,11.69
2023-02-09T11:42:44.529Z,11.65
2023-02-09T11:53:45.667Z,11.02
2023-02-09T11:56:15.127Z,11.02
2023-02-09T12:04:39.889Z,10.71
2023-02-09T12:07:46.057Z,10.60
2023-02-09T12:10:36.310Z,10.48
2023-02-09T12:13:42.635Z,10.36
2023-02-09T12:16:17.454Z,10.28
2023-02-09T12:18:45.530Z,10.18
2023-02-09T12:21:12.808Z,10.09
2023-02-09T12:23:42.535Z,10.05
2023-02-09T12:29:03.760Z,10.01
2023-02-09T12:31:51.688Z,9.94
2023-02-09T12:34:28.900Z,9.82
2023-02-09T12:37:18.606Z,9.58
2023-02-09T12:40:05.063Z,9.36
2023-02-09T12:45:42.437Z,9.29
2023-02-09T12:53:34.630Z,9.32
2023-02-09T12:59:13.555Z,9.33
2023-02-09T13:07:51.915Z,9.60
2023-02-09T13:26:24.513Z,9.15
2023-02-09T13:31:49.306Z,9.14
2023-02-09T13:34:39.994Z,9.12
2023-02-09T13:39:52.751Z,9.18
2023-02-09T13:42:22.505Z,9.15
2023-02-09T13:44:52.005Z,9.15
2023-02-09T13:47:19.019Z,9.07
2023-02-09T13:50:04.619Z,8.97
2023-02-09T13:52:36.405Z,8.98
2023-02-09T13:55:11.168Z,8.94
2023-02-09T13:57:40.989Z,8.86
2023-02-09T14:02:49.196Z,8.91
2023-02-09T14:05:30.469Z,8.89
2023-02-09T14:07:57.237Z,8.89
2023-02-09T14:10:26.238Z,8.86
2023-02-09T14:13:00.045Z,8.80
2023-02-09T14:15:53.443Z,8.79
2023-02-09T14:24:12.677Z,8.69
2023-02-09T14:26:48.798Z,8.70
2023-02-09T14:32:31.982Z,8.67
2023-02-09T14:34:59.570Z,8.63
2023-02-09T14:37:29.419Z,8.60
2023-02-09T14:42:39.503Z,8.98
2023-02-09T14:47:49.205Z,8.63
2023-02-09T14:50:18.447Z,8.55
2023-02-09T14:52:47.431Z,8.52
2023-02-09T14:55:18.616Z,8.48
2023-02-09T14:57:45.295Z,8.43
2023-02-09T15:00:18.221Z,8.39
2023-02-09T15:02:45.924Z,8.34
2023-02-09T15:05:12.626Z,8.31
2023-02-09T15:07:43.236Z,8.28
2023-02-09T15:12:58.800Z,8.22
2023-02-09T15:15:26.115Z,8.17
2023-02-09T15:17:55.280Z,8.15
2023-02-09T15:20:25.298Z,8.09
2023-02-09T15:22:53.252Z,8.08
2023-02-09T15:25:20.101Z,8.05
2023-02-09T15:27:52.706Z,8.02
2023-02-09T15:30:23.011Z,7.97
2023-02-09T15:32:49.968Z,7.86
2023-02-09T15:35:19.491Z,7.90
2023-02-09T15:37:49.297Z,7.87
2023-02-09T15:43:11.737Z,7.79
2023-02-09T15:45:58.278Z,7.77
2023-02-09T15:48:24.834Z,7.75
2023-02-09T15:50:51.964Z,7.72
2023-02-09T15:53:19.255Z,7.71
2023-02-09T15:55:47.022Z,7.70
2023-02-09T15:58:16.168Z,7.66
2023-02-09T16:00:43.518Z,7.62
2023-02-09T16:03:17.831Z,7.60
2023-02-09T16:05:45.957Z,7.55
2023-02-09T16:08:19.823Z,7.50
2023-02-09T16:10:47.762Z,7.44
2023-02-09T16:13:16.213Z,7.41
2023-02-09T16:15:42.918Z,7.33
2023-02-09T16:18:09.719Z,7.30
2023-02-09T16:20:37.419Z,7.26
2023-02-09T16:23:19.732Z,7.20
2023-02-09T16:25:48.663Z,7.14
2023-02-09T16:28:15.259Z,7.09
2023-02-09T16:30:58.345Z,6.99
2023-02-09T16:33:26.179Z,6.93
2023-02-09T16:35:57.288Z,6.88
2023-02-09T16:38:25.592Z,6.79
2023-02-09T16:40:53.756Z,6.73
2023-02-09T16:43:22.068Z,6.69
2023-02-09T16:46:01.443Z,6.62
2023-02-09T16:48:32.222Z,6.55
2023-02-09T16:50:59.163Z,6.48
2023-02-09T16:56:05.752Z,6.36
2023-02-09T16:58:32.756Z,6.29
2023-02-09T17:00:59.497Z,6.23
2023-02-09T17:03:42.653Z,6.12
2023-02-09T17:06:16.827Z,6.09
2023-02-09T17:08:43.580Z,6.01
2023-02-09T17:11:17.264Z,5.95
2023-02-09T17:13:43.929Z,5.88
2023-02-09T17:18:58.001Z,6.33
2023-02-09T17:21:27.349Z,5.94
2023-02-09T17:23:57.368Z,5.78
2023-02-09T17:26:24.620Z,5.72
2023-02-09T17:28:51.194Z,5.64
2023-02-09T17:34:00.890Z,5.52
2023-02-09T17:36:29.462Z,5.46
2023-02-09T17:38:58.525Z,5.39
2023-02-09T17:41:46.566Z,5.31
2023-02-09T17:44:26.356Z,5.29
2023-02-09T17:46:58.515Z,5.24
2023-02-09T17:49:25.106Z,5.19
2023-02-09T17:51:52.933Z,5.14
2023-02-09T17:54:21.010Z,5.10
2023-02-09T17:56:47.868Z,5.07
2023-02-09T17:59:14.913Z,5.03
2023-02-09T18:01:45.782Z,5.00
2023-02-09T18:04:18.325Z,4.97
2023-02-09T18:06:44.978Z,4.95
2023-02-09T18:09:13.167Z,4.93
2023-02-09T18:14:16.501Z,4.90
2023-02-09T18:16:43.725Z,4.86
2023-02-09T18:19:11.819Z,4.83
2023-02-09T18:21:39.731Z,4.81
2023-02-09T18:24:06.649Z,4.79
2023-02-09T18:26:33.785Z,4.74
2023-02-09T18:29:00.329Z,4.73
2023-02-09T18:31:26.909Z,4.70
2023-02-09T18:33:54.171Z,4.68
2023-02-09T18:36:20.901Z,4.67
2023-02-09T18:38:48.217Z,4.61
2023-02-09T18:41:15.220Z,4.58
2023-02-09T18:43:41.956Z,4.54
2023-02-09T18:46:10.686Z,4.50
2023-02-09T18:48:37.302Z,4.47
2023-02-09T18:51:07.374Z,4.44
2023-02-09T18:53:34.120Z,4.40
2023-02-09T18:56:00.792Z,4.36
2023-02-09T18:58:27.353Z,4.34
2023-02-09T19:00:54.297Z,4.32
2023-02-09T19:03:21.359Z,4.30
2023-02-09T19:05:48.205Z,4.28
2023-02-09T19:08:15.495Z,4.25
2023-02-09T19:10:43.133Z,4.23
2023-02-09T19:13:09.799Z,4.20
2023-02-09T19:15:39.034Z,4.18
2023-02-09T19:18:05.892Z,4.14
2023-02-09T19:20:34.261Z,4.10
2023-02-09T19:23:02.419Z,4.07
2023-02-09T19:25:30.469Z,4.04
2023-02-09T19:27:57.093Z,4.02
2023-02-09T19:30:25.123Z,4.00
2023-02-09T19:32:53.710Z,3.98
2023-02-09T19:35:23.019Z,3.97
2023-02-09T19:37:52.644Z,3.96
2023-02-09T19:40:27.487Z,3.94
2023-02-09T19:42:56.523Z,3.93
2023-02-09T19:45:23.411Z,3.91
2023-02-09T19:47:50.053Z,3.88
2023-02-09T19:50:17.461Z,3.86
2023-02-09T19:52:47.454Z,3.85
2023-02-09T19:55:14.418Z,3.84
2023-02-09T19:57:42.480Z,3.83
2023-02-09T20:00:11.620Z,3.83
2023-02-09T20:02:39.377Z,3.81
2023-02-09T20:05:06.338Z,3.79
2023-02-09T20:07:32.882Z,3.79
2023-02-09T20:09:59.717Z,3.79
2023-02-09T20:12:26.369Z,3.77
2023-02-09T20:14:54.526Z,3.77
2023-02-09T20:17:22.102Z,3.77
2023-02-09T20:19:48.636Z,3.75
2023-02-09T20:22:15.306Z,3.74
2023-02-09T20:24:42.984Z,3.75
2023-02-09T20:27:09.843Z,3.74
2023-02-09T20:29:36.390Z,3.74
2023-02-09T20:32:03.025Z,3.74
2023-02-09T20:34:29.692Z,3.74
2023-02-09T20:36:57.587Z,3.73
2023-02-09T20:39:24.600Z,3.73
2023-02-09T20:42:16.044Z,3.74
2023-02-09T20:45:03.423Z,3.68
2023-02-09T20:47:30.225Z,3.64
2023-02-09T20:50:00.070Z,3.62
2023-02-09T20:52:28.771Z,3.62
2023-02-09T20:54:56.156Z,3.58
2023-02-09T20:57:29.257Z,3.52
2023-02-09T20:59:58.603Z,3.49
2023-02-09T21:02:26.245Z,3.45
2023-02-09T21:04:56.083Z,3.42
2023-02-09T21:07:22.882Z,3.39
2023-02-09T21:09:49.440Z,3.36
2023-02-09T21:12:16.133Z,3.34
2023-02-09T21:14:45.197Z,3.31
2023-02-09T21:17:12.641Z,3.29
2023-02-09T21:19:40.200Z,3.27
2023-02-09T21:22:06.796Z,3.23
2023-02-09T21:24:33.373Z,3.23
2023-02-09T21:27:00.988Z,3.21
2023-02-09T21:29:29.425Z,3.17
2023-02-09T21:32:00.172Z,3.15
2023-02-09T21:34:26.957Z,3.13
2023-02-09T21:36:53.509Z,3.10
2023-02-09T21:39:20.056Z,3.06
2023-02-09T21:42:06.578Z,3.02
2023-02-09T21:44:35.977Z,3.00
2023-02-09T21:47:02.560Z,2.97
2023-02-09T21:49:31.731Z,2.95
2023-02-09T21:51:58.812Z,2.92
2023-02-09T21:54:26.555Z,2.88
2023-02-09T21:56:54.529Z,2.82
2023-02-09T21:59:21.147Z,2.79
2023-02-09T22:01:47.749Z,2.74
2023-02-09T22:04:14.324Z,2.68
2023-02-09T22:06:41.781Z,2.68
2023-02-09T22:09:08.529Z,2.68
2023-02-09T22:11:35.205Z,2.66
2023-02-09T22:14:02.058Z,2.63
2023-02-09T22:16:29.589Z,2.61
2023-02-09T22:18:56.682Z,2.56
2023-02-09T22:21:23.252Z,2.53
2023-02-09T22:23:52.755Z,2.50
2023-02-09T22:26:19.400Z,2.47
2023-02-09T22:28:46.859Z,2.44
2023-02-09T22:31:16.358Z,2.41
2023-02-09T22:33:43.315Z,2.38
2023-02-09T22:36:14.302Z,2.35
2023-02-09T22:38:41.538Z,2.33
2023-02-09T22:41:21.399Z,2.31
2023-02-09T22:46:29.203Z,2.23
2023-02-09T22:48:58.976Z,2.20
2023-02-09T22:51:28.386Z,2.18
2023-02-09T22:53:56.290Z,2.16
2023-02-09T22:56:22.893Z,2.16
2023-02-09T22:58:49.747Z,2.14
2023-02-09T23:01:17.774Z,2.12
2023-02-09T23:03:44.470Z,2.10
2023-02-09T23:06:15.353Z,2.10
2023-02-09T23:08:41.991Z,2.08
2023-02-09T23:11:11.838Z,2.07
2023-02-09T23:13:38.871Z,2.04
2023-02-09T23:18:48.244Z,1.98
2023-02-09T23:21:15.895Z,1.92
2023-02-09T23:23:42.657Z,1.89
2023-02-09T23:26:09.277Z,1.85
2023-02-09T23:28:35.879Z,1.84
2023-02-09T23:31:07.599Z,1.80
2023-02-09T23:33:36.525Z,1.79
2023-02-09T23:36:06.680Z,1.77
2023-02-09T23:38:33.626Z,1.77
2023-02-09T23:41:00.254Z,1.76
2023-02-09T23:43:26.898Z,1.73
2023-02-09T23:45:53.912Z,1.70
2023-02-09T23:48:20.582Z,1.66
2023-02-09T23:50:47.231Z,1.63
2023-02-09T23:53:14.699Z,1.61
2023-02-09T23:55:41.363Z,1.58
2023-02-09T23:58:07.890Z,1.53
